GMME/RBA METAR and TAF weather

Enter ICAO airport designator
Station Type Date Time Source
GMME METAR 2018/01/19 23:00 UTC NOAA

GMME 192300Z VRB01KT 5000 R21/1300VP1500D FEW010 10/09 Q1026 TEMPO 4000 BR


Station Type Date Time Source
GMME Decoded METAR 2018/01/19 23:00 UTC NOAA

Rabat-Sale, Morocco (GMME) 34-03N 006-46W 75M
Jan 19, 2018 - 06:00 PM EST / 2018.01.19 2300 UTC
Wind: Variable at 1 MPH (1 KT):0
Visibility: 3 mile(s):0
Sky conditions: mostly clear
Temperature: 50 F (10 C)
Dew Point: 48 F (9 C)
Relative Humidity: 93%
Pressure (altimeter): 30.30 in. Hg (1026 hPa)
ob: GMME 192300Z VRB01KT 5000 R21/1300VP1500D FEW010 10/09 Q1026 TEMPO 4000 BR
cycle: 23

Station Type Date Time Source
GMME TAF 2018/01/19 18:15 UTC NOAA

TAF GMME 191700Z 1918/2100 26008KT 6000 SCT013 SCT030 PROB40
TEMPO 1920/2006 24004KT 3000 BR SCT010 BKN015
BECMG 2006/2010 14008KT 8000 SCT020 SCT090
TEMPO 2020/2100 VRB03KT 2000 BR BKN010


Example: see airport list